sensor_id;sensor_type;location;lat;lon;timestamp;P1;durP1;ratioP1;P2;durP2;ratioP2
12441;SDS011;6285;48.804;9.220;2023-04-26T00:01:30;9.55;;;6.65;;
12441;SDS011;6285;48.804;9.220;2023-04-26T00:03:59;6.68;;;5.32;;
12441;SDS011;6285;48.804;9.220;2023-04-26T00:06:26;9.68;;;6.00;;
12441;SDS011;6285;48.804;9.220;2023-04-26T00:08:53;10.45;;;5.88;;
12441;SDS011;6285;48.804;9.220;2023-04-26T00:11:20;11.27;;;6.28;;
12441;SDS011;6285;48.804;9.220;2023-04-26T00:13:48;7.45;;;5.55;;
12441;SDS011;6285;48.804;9.220;2023-04-26T00:16:16;9.88;;;6.05;;
12441;SDS011;6285;48.804;9.220;2023-04-26T00:18:44;6.97;;;6.00;;
12441;SDS011;6285;48.804;9.220;2023-04-26T00:21:11;9.25;;;6.72;;
12441;SDS011;6285;48.804;9.220;2023-04-26T00:23:38;8.68;;;5.60;;
12441;SDS011;6285;48.804;9.220;2023-04-26T00:26:06;13.20;;;6.20;;
12441;SDS011;6285;48.804;9.220;2023-04-26T00:28:33;8.45;;;6.05;;
12441;SDS011;6285;48.804;9.220;2023-04-26T00:31:00;10.50;;;6.43;;
12441;SDS011;6285;48.804;9.220;2023-04-26T00:33:28;10.57;;;6.50;;
12441;SDS011;6285;48.804;9.220;2023-04-26T00:35:55;8.00;;;6.13;;
12441;SDS011;6285;48.804;9.220;2023-04-26T00:38:23;8.65;;;5.60;;
12441;SDS011;6285;48.804;9.220;2023-04-26T00:40:50;7.88;;;5.57;;
12441;SDS011;6285;48.804;9.220;2023-04-26T00:43:17;9.73;;;5.93;;
12441;SDS011;6285;48.804;9.220;2023-04-26T00:45:44;9.10;;;6.40;;
12441;SDS011;6285;48.804;9.220;2023-04-26T00:48:11;9.20;;;6.00;;
12441;SDS011;6285;48.804;9.220;2023-04-26T00:50:39;10.82;;;6.03;;
12441;SDS011;6285;48.804;9.220;2023-04-26T00:53:07;9.90;;;5.68;;
12441;SDS011;6285;48.804;9.220;2023-04-26T00:55:34;9.20;;;5.75;;
12441;SDS011;6285;48.804;9.220;2023-04-26T00:58:01;12.88;;;6.07;;
12441;SDS011;6285;48.804;9.220;2023-04-26T01:00:28;7.22;;;5.45;;
12441;SDS011;6285;48.804;9.220;2023-04-26T01:02:56;7.90;;;5.97;;
12441;SDS011;6285;48.804;9.220;2023-04-26T01:05:23;8.38;;;6.05;;
12441;SDS011;6285;48.804;9.220;2023-04-26T01:07:51;9.93;;;6.38;;
12441;SDS011;6285;48.804;9.220;2023-04-26T01:10:18;10.75;;;6.43;;
12441;SDS011;6285;48.804;9.220;2023-04-26T01:12:45;8.63;;;6.25;;
12441;SDS011;6285;48.804;9.220;2023-04-26T01:15:13;9.00;;;6.32;;
12441;SDS011;6285;48.804;9.220;2023-04-26T01:17:40;9.10;;;6.28;;
12441;SDS011;6285;48.804;9.220;2023-04-26T01:20:08;9.93;;;6.65;;
12441;SDS011;6285;48.804;9.220;2023-04-26T01:22:37;7.45;;;6.13;;
12441;SDS011;6285;48.804;9.220;2023-04-26T01:25:04;11.27;;;5.68;;
12441;SDS011;6285;48.804;9.220;2023-04-26T01:27:33;9.15;;;6.28;;
12441;SDS011;6285;48.804;9.220;2023-04-26T01:30:00;7.95;;;6.00;;
12441;SDS011;6285;48.804;9.220;2023-04-26T01:32:27;9.13;;;6.22;;
12441;SDS011;6285;48.804;9.220;2023-04-26T01:34:54;8.18;;;5.93;;
12441;SDS011;6285;48.804;9.220;2023-04-26T01:37:22;9.60;;;5.88;;
12441;SDS011;6285;48.804;9.220;2023-04-26T01:39:50;9.18;;;6.32;;
12441;SDS011;6285;48.804;9.220;2023-04-26T01:42:17;11.30;;;6.32;;
12441;SDS011;6285;48.804;9.220;2023-04-26T01:44:44;9.63;;;6.47;;
12441;SDS011;6285;48.804;9.220;2023-04-26T01:47:11;10.55;;;6.22;;
12441;SDS011;6285;48.804;9.220;2023-04-26T01:49:38;10.48;;;6.80;;
12441;SDS011;6285;48.804;9.220;2023-04-26T01:52:06;9.52;;;6.18;;
12441;SDS011;6285;48.804;9.220;2023-04-26T01:54:33;12.10;;;6.65;;
12441;SDS011;6285;48.804;9.220;2023-04-26T01:57:01;11.23;;;6.20;;
12441;SDS011;6285;48.804;9.220;2023-04-26T01:59:28;10.30;;;6.35;;
12441;SDS011;6285;48.804;9.220;2023-04-26T02:01:55;8.70;;;6.65;;
12441;SDS011;6285;48.804;9.220;2023-04-26T02:04:22;10.63;;;6.22;;
12441;SDS011;6285;48.804;9.220;2023-04-26T02:06:50;8.65;;;6.43;;
12441;SDS011;6285;48.804;9.220;2023-04-26T02:09:17;9.45;;;5.90;;
12441;SDS011;6285;48.804;9.220;2023-04-26T02:11:44;8.38;;;5.90;;
12441;SDS011;6285;48.804;9.220;2023-04-26T02:14:12;11.40;;;6.20;;
12441;SDS011;6285;48.804;9.220;2023-04-26T02:16:39;8.65;;;6.10;;
12441;SDS011;6285;48.804;9.220;2023-04-26T02:19:07;9.73;;;5.90;;
12441;SDS011;6285;48.804;9.220;2023-04-26T02:21:48;8.10;;;6.45;;
12441;SDS011;6285;48.804;9.220;2023-04-26T02:24:15;8.60;;;6.13;;
12441;SDS011;6285;48.804;9.220;2023-04-26T02:26:43;9.18;;;6.38;;
12441;SDS011;6285;48.804;9.220;2023-04-26T02:29:10;10.27;;;6.50;;
12441;SDS011;6285;48.804;9.220;2023-04-26T02:31:38;10.63;;;6.95;;
12441;SDS011;6285;48.804;9.220;2023-04-26T02:34:05;9.77;;;7.40;;
12441;SDS011;6285;48.804;9.220;2023-04-26T02:36:32;11.10;;;6.38;;
12441;SDS011;6285;48.804;9.220;2023-04-26T02:38:59;12.70;;;7.97;;
12441;SDS011;6285;48.804;9.220;2023-04-26T02:41:27;9.98;;;7.30;;
12441;SDS011;6285;48.804;9.220;2023-04-26T02:43:54;11.82;;;7.55;;
12441;SDS011;6285;48.804;9.220;2023-04-26T02:46:21;11.07;;;7.07;;
12441;SDS011;6285;48.804;9.220;2023-04-26T02:48:50;10.90;;;7.35;;
12441;SDS011;6285;48.804;9.220;2023-04-26T02:51:17;14.38;;;7.32;;
12441;SDS011;6285;48.804;9.220;2023-04-26T02:53:44;10.40;;;7.88;;
12441;SDS011;6285;48.804;9.220;2023-04-26T02:56:11;9.35;;;7.32;;
12441;SDS011;6285;48.804;9.220;2023-04-26T02:58:38;12.32;;;7.60;;
12441;SDS011;6285;48.804;9.220;2023-04-26T03:01:05;14.95;;;7.60;;
12441;SDS011;6285;48.804;9.220;2023-04-26T03:03:32;12.82;;;7.45;;
12441;SDS011;6285;48.804;9.220;2023-04-26T03:06:02;11.18;;;7.65;;
12441;SDS011;6285;48.804;9.220;2023-04-26T03:08:29;14.05;;;7.95;;
12441;SDS011;6285;48.804;9.220;2023-04-26T03:10:58;13.07;;;8.35;;
12441;SDS011;6285;48.804;9.220;2023-04-26T03:13:26;13.57;;;7.95;;
12441;SDS011;6285;48.804;9.220;2023-04-26T03:15:53;14.35;;;7.82;;
12441;SDS011;6285;48.804;9.220;2023-04-26T03:18:20;14.52;;;7.75;;
12441;SDS011;6285;48.804;9.220;2023-04-26T03:20:47;13.48;;;8.43;;
12441;SDS011;6285;48.804;9.220;2023-04-26T03:23:16;12.70;;;7.82;;
12441;SDS011;6285;48.804;9.220;2023-04-26T03:25:43;15.43;;;9.18;;
12441;SDS011;6285;48.804;9.220;2023-04-26T03:28:10;18.67;;;9.57;;
12441;SDS011;6285;48.804;9.220;2023-04-26T03:30:38;14.88;;;9.77;;
12441;SDS011;6285;48.804;9.220;2023-04-26T03:33:05;13.43;;;9.48;;
12441;SDS011;6285;48.804;9.220;2023-04-26T03:35:32;12.65;;;9.25;;
12441;SDS011;6285;48.804;9.220;2023-04-26T03:37:59;14.13;;;9.93;;
12441;SDS011;6285;48.804;9.220;2023-04-26T03:40:27;13.82;;;9.65;;
12441;SDS011;6285;48.804;9.220;2023-04-26T03:42:54;18.17;;;9.48;;
12441;SDS011;6285;48.804;9.220;2023-04-26T03:45:21;12.93;;;9.02;;
12441;SDS011;6285;48.804;9.220;2023-04-26T03:47:50;12.40;;;10.18;;
12441;SDS011;6285;48.804;9.220;2023-04-26T03:50:17;13.07;;;10.35;;
12441;SDS011;6285;48.804;9.220;2023-04-26T03:52:44;16.67;;;11.05;;
12441;SDS011;6285;48.804;9.220;2023-04-26T03:55:12;16.10;;;11.60;;
12441;SDS011;6285;48.804;9.220;2023-04-26T03:57:40;15.07;;;11.05;;
12441;SDS011;6285;48.804;9.220;2023-04-26T04:00:07;17.70;;;11.57;;
12441;SDS011;6285;48.804;9.220;2023-04-26T04:02:36;16.73;;;11.00;;
12441;SDS011;6285;48.804;9.220;2023-04-26T04:05:03;14.30;;;11.40;;
12441;SDS011;6285;48.804;9.220;2023-04-26T04:07:30;14.15;;;10.65;;
12441;SDS011;6285;48.804;9.220;2023-04-26T04:09:57;15.05;;;11.68;;
12441;SDS011;6285;48.804;9.220;2023-04-26T04:12:24;17.02;;;11.43;;
12441;SDS011;6285;48.804;9.220;2023-04-26T05:53:20;15.38;;;10.73;;
12441;SDS011;6285;48.804;9.220;2023-04-26T05:55:47;15.18;;;10.95;;
12441;SDS011;6285;48.804;9.220;2023-04-26T05:58:14;13.52;;;11.25;;
12441;SDS011;6285;48.804;9.220;2023-04-26T06:00:41;12.18;;;10.10;;
12441;SDS011;6285;48.804;9.220;2023-04-26T06:03:08;12.80;;;10.18;;
12441;SDS011;6285;48.804;9.220;2023-04-26T06:05:36;16.50;;;11.48;;
12441;SDS011;6285;48.804;9.220;2023-04-26T06:08:03;14.25;;;10.43;;
12441;SDS011;6285;48.804;9.220;2023-04-26T06:10:32;15.15;;;11.45;;
12441;SDS011;6285;48.804;9.220;2023-04-26T06:13:01;15.75;;;10.27;;
12441;SDS011;6285;48.804;9.220;2023-04-26T06:15:28;15.35;;;10.77;;
12441;SDS011;6285;48.804;9.220;2023-04-26T06:17:55;14.07;;;11.20;;
12441;SDS011;6285;48.804;9.220;2023-04-26T06:20:59;15.30;;;10.73;;
12441;SDS011;6285;48.804;9.220;2023-04-26T06:23:26;14.07;;;10.60;;
12441;SDS011;6285;48.804;9.220;2023-04-26T06:25:53;15.68;;;10.68;;
12441;SDS011;6285;48.804;9.220;2023-04-26T06:28:20;14.60;;;10.13;;
12441;SDS011;6285;48.804;9.220;2023-04-26T06:30:47;12.25;;;8.75;;
12441;SDS011;6285;48.804;9.220;2023-04-26T06:33:14;10.57;;;6.97;;
12441;SDS011;6285;48.804;9.220;2023-04-26T06:35:41;10.27;;;6.18;;
12441;SDS011;6285;48.804;9.220;2023-04-26T06:38:10;8.05;;;5.63;;
12441;SDS011;6285;48.804;9.220;2023-04-26T06:40:37;7.22;;;6.13;;
12441;SDS011;6285;48.804;9.220;2023-04-26T06:43:04;9.02;;;6.82;;
12441;SDS011;6285;48.804;9.220;2023-04-26T06:45:31;12.32;;;6.93;;
12441;SDS011;6285;48.804;9.220;2023-04-26T06:47:58;9.48;;;6.18;;
12441;SDS011;6285;48.804;9.220;2023-04-26T06:50:26;8.00;;;6.60;;
12441;SDS011;6285;48.804;9.220;2023-04-26T06:52:52;8.98;;;6.65;;
12441;SDS011;6285;48.804;9.220;2023-04-26T06:55:21;11.93;;;6.28;;
12441;SDS011;6285;48.804;9.220;2023-04-26T06:57:48;10.05;;;5.85;;
12441;SDS011;6285;48.804;9.220;2023-04-26T07:00:15;8.68;;;6.30;;
12441;SDS011;6285;48.804;9.220;2023-04-26T07:02:43;8.20;;;6.38;;
12441;SDS011;6285;48.804;9.220;2023-04-26T07:05:10;8.52;;;5.80;;
12441;SDS011;6285;48.804;9.220;2023-04-26T07:07:37;6.05;;;4.88;;
12441;SDS011;6285;48.804;9.220;2023-04-26T07:10:04;7.20;;;4.93;;
12441;SDS011;6285;48.804;9.220;2023-04-26T07:12:33;8.45;;;5.30;;
12441;SDS011;6285;48.804;9.220;2023-04-26T07:15:01;10.27;;;4.95;;
12441;SDS011;6285;48.804;9.220;2023-04-26T07:17:30;13.15;;;6.97;;
12441;SDS011;6285;48.804;9.220;2023-04-26T07:19:57;8.95;;;5.70;;
12441;SDS011;6285;48.804;9.220;2023-04-26T07:22:24;7.35;;;5.13;;
12441;SDS011;6285;48.804;9.220;2023-04-26T07:24:51;8.13;;;4.68;;
12441;SDS011;6285;48.804;9.220;2023-04-26T07:27:18;7.25;;;5.40;;
12441;SDS011;6285;48.804;9.220;2023-04-26T07:29:46;7.95;;;4.65;;
12441;SDS011;6285;48.804;9.220;2023-04-26T07:32:13;8.88;;;5.50;;
12441;SDS011;6285;48.804;9.220;2023-04-26T07:34:40;7.90;;;5.10;;
12441;SDS011;6285;48.804;9.220;2023-04-26T07:37:07;8.43;;;5.18;;
12441;SDS011;6285;48.804;9.220;2023-04-26T07:39:34;6.43;;;4.55;;
12441;SDS011;6285;48.804;9.220;2023-04-26T07:42:01;7.18;;;5.47;;
12441;SDS011;6285;48.804;9.220;2023-04-26T07:44:28;10.13;;;4.75;;
12441;SDS011;6285;48.804;9.220;2023-04-26T07:46:56;7.30;;;4.68;;
12441;SDS011;6285;48.804;9.220;2023-04-26T07:49:24;7.10;;;4.53;;
12441;SDS011;6285;48.804;9.220;2023-04-26T07:51:51;7.63;;;4.60;;
12441;SDS011;6285;48.804;9.220;2023-04-26T07:54:20;8.50;;;4.60;;
12441;SDS011;6285;48.804;9.220;2023-04-26T07:56:47;10.15;;;4.70;;
12441;SDS011;6285;48.804;9.220;2023-04-26T07:59:14;7.95;;;4.20;;
12441;SDS011;6285;48.804;9.220;2023-04-26T08:01:41;7.22;;;4.22;;
12441;SDS011;6285;48.804;9.220;2023-04-26T08:04:09;8.02;;;4.95;;
12441;SDS011;6285;48.804;9.220;2023-04-26T08:06:36;7.43;;;4.63;;
12441;SDS011;6285;48.804;9.220;2023-04-26T08:09:03;8.75;;;4.90;;
12441;SDS011;6285;48.804;9.220;2023-04-26T08:11:30;6.03;;;4.40;;
12441;SDS011;6285;48.804;9.220;2023-04-26T08:13:57;7.18;;;5.22;;
12441;SDS011;6285;48.804;9.220;2023-04-26T08:16:24;8.75;;;4.55;;
12441;SDS011;6285;48.804;9.220;2023-04-26T08:18:51;6.65;;;4.40;;
12441;SDS011;6285;48.804;9.220;2023-04-26T08:21:20;6.80;;;4.60;;
12441;SDS011;6285;48.804;9.220;2023-04-26T08:23:47;8.13;;;4.07;;
12441;SDS011;6285;48.804;9.220;2023-04-26T08:26:14;7.53;;;4.70;;
12441;SDS011;6285;48.804;9.220;2023-04-26T08:28:41;8.00;;;4.90;;
12441;SDS011;6285;48.804;9.220;2023-04-26T08:31:08;8.50;;;5.03;;
12441;SDS011;6285;48.804;9.220;2023-04-26T08:33:36;8.43;;;4.60;;
12441;SDS011;6285;48.804;9.220;2023-04-26T08:36:03;7.63;;;4.82;;
12441;SDS011;6285;48.804;9.220;2023-04-26T08:38:31;10.23;;;5.40;;
12441;SDS011;6285;48.804;9.220;2023-04-26T08:40:58;7.28;;;4.80;;
12441;SDS011;6285;48.804;9.220;2023-04-26T08:43:26;7.90;;;4.20;;
12441;SDS011;6285;48.804;9.220;2023-04-26T08:45:54;7.80;;;4.68;;
12441;SDS011;6285;48.804;9.220;2023-04-26T08:48:21;6.90;;;4.25;;
12441;SDS011;6285;48.804;9.220;2023-04-26T08:50:48;9.25;;;4.40;;
12441;SDS011;6285;48.804;9.220;2023-04-26T08:53:16;7.88;;;4.40;;
12441;SDS011;6285;48.804;9.220;2023-04-26T08:55:47;7.03;;;4.57;;
12441;SDS011;6285;48.804;9.220;2023-04-26T08:58:15;6.20;;;3.97;;
12441;SDS011;6285;48.804;9.220;2023-04-26T09:00:43;6.90;;;4.43;;
12441;SDS011;6285;48.804;9.220;2023-04-26T09:03:10;8.43;;;4.80;;
12441;SDS011;6285;48.804;9.220;2023-04-26T09:05:38;6.47;;;4.82;;
12441;SDS011;6285;48.804;9.220;2023-04-26T09:08:08;6.90;;;5.15;;
12441;SDS011;6285;48.804;9.220;2023-04-26T09:10:35;8.30;;;4.38;;
12441;SDS011;6285;48.804;9.220;2023-04-26T09:13:03;8.80;;;5.65;;
12441;SDS011;6285;48.804;9.220;2023-04-26T09:15:30;8.38;;;5.50;;
12441;SDS011;6285;48.804;9.220;2023-04-26T09:18:01;9.00;;;5.45;;
12441;SDS011;6285;48.804;9.220;2023-04-26T09:20:42;7.93;;;4.85;;
12441;SDS011;6285;48.804;9.220;2023-04-26T09:23:09;7.28;;;4.75;;
12441;SDS011;6285;48.804;9.220;2023-04-26T09:25:36;8.10;;;4.93;;
12441;SDS011;6285;48.804;9.220;2023-04-26T09:28:17;11.00;;;4.78;;
12441;SDS011;6285;48.804;9.220;2023-04-26T09:30:44;7.55;;;4.32;;
12441;SDS011;6285;48.804;9.220;2023-04-26T09:33:11;9.55;;;4.75;;
12441;SDS011;6285;48.804;9.220;2023-04-26T09:35:39;8.05;;;4.97;;
12441;SDS011;6285;48.804;9.220;2023-04-26T09:38:07;7.95;;;4.60;;
12441;SDS011;6285;48.804;9.220;2023-04-26T09:40:35;9.38;;;4.57;;
12441;SDS011;6285;48.804;9.220;2023-04-26T09:43:06;7.00;;;4.70;;
12441;SDS011;6285;48.804;9.220;2023-04-26T09:45:41;12.93;;;4.82;;
12441;SDS011;6285;48.804;9.220;2023-04-26T09:48:15;10.30;;;4.38;;
12441;SDS011;6285;48.804;9.220;2023-04-26T09:50:45;8.25;;;4.55;;
12441;SDS011;6285;48.804;9.220;2023-04-26T09:53:29;9.18;;;4.78;;
12441;SDS011;6285;48.804;9.220;2023-04-26T09:56:04;11.00;;;4.95;;
12441;SDS011;6285;48.804;9.220;2023-04-26T09:58:34;8.73;;;4.90;;
12441;SDS011;6285;48.804;9.220;2023-04-26T10:01:02;6.00;;;4.30;;
12441;SDS011;6285;48.804;9.220;2023-04-26T10:03:30;9.20;;;4.50;;
12441;SDS011;6285;48.804;9.220;2023-04-26T10:05:59;5.63;;;3.90;;
12441;SDS011;6285;48.804;9.220;2023-04-26T10:08:27;6.70;;;3.95;;
12441;SDS011;6285;48.804;9.220;2023-04-26T10:10:54;7.00;;;4.18;;
12441;SDS011;6285;48.804;9.220;2023-04-26T10:13:21;6.13;;;4.13;;
12441;SDS011;6285;48.804;9.220;2023-04-26T10:15:50;7.00;;;4.45;;
12441;SDS011;6285;48.804;9.220;2023-04-26T10:18:18;13.65;;;7.70;;
12441;SDS011;6285;48.804;9.220;2023-04-26T10:20:47;8.75;;;3.95;;
12441;SDS011;6285;48.804;9.220;2023-04-26T10:23:18;8.57;;;4.00;;
12441;SDS011;6285;48.804;9.220;2023-04-26T10:25:46;6.53;;;3.95;;
12441;SDS011;6285;48.804;9.220;2023-04-26T10:28:13;6.50;;;3.80;;
12441;SDS011;6285;48.804;9.220;2023-04-26T10:30:55;9.40;;;4.63;;
12441;SDS011;6285;48.804;9.220;2023-04-26T10:33:22;6.53;;;4.30;;
12441;SDS011;6285;48.804;9.220;2023-04-26T10:36:00;6.53;;;3.85;;
12441;SDS011;6285;48.804;9.220;2023-04-26T10:38:27;8.32;;;3.92;;
12441;SDS011;6285;48.804;9.220;2023-04-26T10:40:55;6.20;;;4.30;;
12441;SDS011;6285;48.804;9.220;2023-04-26T10:43:28;9.20;;;4.20;;
12441;SDS011;6285;48.804;9.220;2023-04-26T10:45:58;8.95;;;4.53;;
12441;SDS011;6285;48.804;9.220;2023-04-26T10:48:45;5.10;;;3.38;;
12441;SDS011;6285;48.804;9.220;2023-04-26T10:51:12;4.45;;;3.03;;
12441;SDS011;6285;48.804;9.220;2023-04-26T10:53:58;6.20;;;3.47;;
12441;SDS011;6285;48.804;9.220;2023-04-26T10:59:19;6.35;;;4.10;;
12441;SDS011;6285;48.804;9.220;2023-04-26T11:01:47;7.40;;;3.70;;
12441;SDS011;6285;48.804;9.220;2023-04-26T11:04:14;5.55;;;4.00;;
12441;SDS011;6285;48.804;9.220;2023-04-26T11:06:49;7.40;;;3.60;;
12441;SDS011;6285;48.804;9.220;2023-04-26T11:09:32;4.97;;;3.45;;
12441;SDS011;6285;48.804;9.220;2023-04-26T11:12:02;7.50;;;3.75;;
12441;SDS011;6285;48.804;9.220;2023-04-26T11:14:29;6.47;;;3.53;;
12441;SDS011;6285;48.804;9.220;2023-04-26T11:16:58;5.97;;;3.60;;
12441;SDS011;6285;48.804;9.220;2023-04-26T11:19:25;6.60;;;3.50;;
12441;SDS011;6285;48.804;9.220;2023-04-26T11:21:52;5.70;;;3.65;;
12441;SDS011;6285;48.804;9.220;2023-04-26T11:24:23;7.53;;;4.13;;
12441;SDS011;6285;48.804;9.220;2023-04-26T11:26:50;5.43;;;3.45;;
12441;SDS011;6285;48.804;9.220;2023-04-26T11:29:18;7.82;;;3.95;;
12441;SDS011;6285;48.804;9.220;2023-04-26T11:31:49;7.70;;;4.32;;
12441;SDS011;6285;48.804;9.220;2023-04-26T11:34:20;7.55;;;3.88;;
12441;SDS011;6285;48.804;9.220;2023-04-26T11:36:49;7.97;;;3.80;;
12441;SDS011;6285;48.804;9.220;2023-04-26T11:39:18;5.30;;;3.55;;
12441;SDS011;6285;48.804;9.220;2023-04-26T11:41:45;5.15;;;3.47;;
12441;SDS011;6285;48.804;9.220;2023-04-26T11:44:16;6.32;;;3.90;;
12441;SDS011;6285;48.804;9.220;2023-04-26T11:46:43;6.95;;;3.78;;
12441;SDS011;6285;48.804;9.220;2023-04-26T11:49:11;7.30;;;4.07;;
12441;SDS011;6285;48.804;9.220;2023-04-26T11:51:39;7.10;;;3.75;;
12441;SDS011;6285;48.804;9.220;2023-04-26T11:54:07;8.98;;;5.63;;
12441;SDS011;6285;48.804;9.220;2023-04-26T11:56:34;8.73;;;4.43;;
12441;SDS011;6285;48.804;9.220;2023-04-26T11:59:01;6.95;;;3.65;;
12441;SDS011;6285;48.804;9.220;2023-04-26T12:01:28;6.60;;;3.67;;
12441;SDS011;6285;48.804;9.220;2023-04-26T12:03:56;6.93;;;3.80;;
12441;SDS011;6285;48.804;9.220;2023-04-26T12:06:29;7.07;;;3.45;;
12441;SDS011;6285;48.804;9.220;2023-04-26T12:08:59;5.40;;;4.05;;
12441;SDS011;6285;48.804;9.220;2023-04-26T12:11:26;6.50;;;3.72;;
12441;SDS011;6285;48.804;9.220;2023-04-26T12:13:56;7.78;;;3.83;;
12441;SDS011;6285;48.804;9.220;2023-04-26T12:16:24;9.00;;;4.15;;
12441;SDS011;6285;48.804;9.220;2023-04-26T12:18:52;5.72;;;3.95;;
12441;SDS011;6285;48.804;9.220;2023-04-26T12:21:19;6.75;;;3.80;;
12441;SDS011;6285;48.804;9.220;2023-04-26T12:23:46;7.88;;;3.47;;
12441;SDS011;6285;48.804;9.220;2023-04-26T12:26:14;6.05;;;3.53;;
12441;SDS011;6285;48.804;9.220;2023-04-26T12:28:42;5.82;;;3.72;;
12441;SDS011;6285;48.804;9.220;2023-04-26T12:31:09;10.35;;;3.80;;
12441;SDS011;6285;48.804;9.220;2023-04-26T12:33:37;7.85;;;3.55;;
12441;SDS011;6285;48.804;9.220;2023-04-26T12:36:13;5.47;;;3.47;;
12441;SDS011;6285;48.804;9.220;2023-04-26T12:38:40;9.57;;;4.30;;
12441;SDS011;6285;48.804;9.220;2023-04-26T12:41:07;4.05;;;3.28;;
12441;SDS011;6285;48.804;9.220;2023-04-26T12:43:36;6.85;;;3.70;;
12441;SDS011;6285;48.804;9.220;2023-04-26T12:46:03;6.28;;;3.47;;
12441;SDS011;6285;48.804;9.220;2023-04-26T12:48:30;5.55;;;3.60;;
12441;SDS011;6285;48.804;9.220;2023-04-26T12:50:57;5.72;;;3.60;;
12441;SDS011;6285;48.804;9.220;2023-04-26T12:53:24;5.30;;;3.75;;
12441;SDS011;6285;48.804;9.220;2023-04-26T12:55:51;5.20;;;3.80;;
12441;SDS011;6285;48.804;9.220;2023-04-26T12:58:18;5.78;;;3.38;;
12441;SDS011;6285;48.804;9.220;2023-04-26T13:00:47;4.70;;;3.70;;
12441;SDS011;6285;48.804;9.220;2023-04-26T13:03:15;6.82;;;3.90;;
12441;SDS011;6285;48.804;9.220;2023-04-26T13:05:42;6.50;;;3.80;;
12441;SDS011;6285;48.804;9.220;2023-04-26T13:08:09;5.93;;;3.55;;
12441;SDS011;6285;48.804;9.220;2023-04-26T13:10:36;7.65;;;3.90;;
12441;SDS011;6285;48.804;9.220;2023-04-26T13:13:03;6.20;;;3.85;;
12441;SDS011;6285;48.804;9.220;2023-04-26T13:15:30;8.10;;;3.92;;
12441;SDS011;6285;48.804;9.220;2023-04-26T13:17:58;6.70;;;3.88;;
12441;SDS011;6285;48.804;9.220;2023-04-26T13:20:25;5.75;;;3.70;;
12441;SDS011;6285;48.804;9.220;2023-04-26T13:22:52;4.15;;;3.70;;
12441;SDS011;6285;48.804;9.220;2023-04-26T13:25:19;4.53;;;3.70;;
12441;SDS011;6285;48.804;9.220;2023-04-26T13:27:47;7.88;;;3.63;;
12441;SDS011;6285;48.804;9.220;2023-04-26T13:30:15;6.63;;;3.55;;
12441;SDS011;6285;48.804;9.220;2023-04-26T13:32:42;8.85;;;3.80;;
12441;SDS011;6285;48.804;9.220;2023-04-26T13:35:11;8.65;;;3.53;;
12441;SDS011;6285;48.804;9.220;2023-04-26T13:37:38;7.90;;;3.72;;
12441;SDS011;6285;48.804;9.220;2023-04-26T13:40:06;8.73;;;4.15;;
12441;SDS011;6285;48.804;9.220;2023-04-26T13:42:35;6.53;;;3.67;;
12441;SDS011;6285;48.804;9.220;2023-04-26T13:45:02;5.28;;;3.50;;
12441;SDS011;6285;48.804;9.220;2023-04-26T13:47:30;6.28;;;3.90;;
12441;SDS011;6285;48.804;9.220;2023-04-26T13:49:57;5.82;;;3.63;;
12441;SDS011;6285;48.804;9.220;2023-04-26T13:52:26;5.18;;;4.00;;
12441;SDS011;6285;48.804;9.220;2023-04-26T13:54:53;7.07;;;4.05;;
12441;SDS011;6285;48.804;9.220;2023-04-26T13:57:20;4.63;;;3.33;;
12441;SDS011;6285;48.804;9.220;2023-04-26T13:59:47;5.72;;;3.58;;
12441;SDS011;6285;48.804;9.220;2023-04-26T14:02:14;6.60;;;3.83;;
12441;SDS011;6285;48.804;9.220;2023-04-26T14:04:41;4.65;;;3.60;;
12441;SDS011;6285;48.804;9.220;2023-04-26T14:07:08;7.78;;;4.05;;
12441;SDS011;6285;48.804;9.220;2023-04-26T14:09:36;6.43;;;3.50;;
12441;SDS011;6285;48.804;9.220;2023-04-26T14:12:03;6.53;;;3.78;;
12441;SDS011;6285;48.804;9.220;2023-04-26T14:14:30;11.55;;;4.10;;
12441;SDS011;6285;48.804;9.220;2023-04-26T14:16:57;5.22;;;3.75;;
12441;SDS011;6285;48.804;9.220;2023-04-26T14:19:25;11.40;;;4.15;;
12441;SDS011;6285;48.804;9.220;2023-04-26T14:21:52;10.35;;;3.78;;
12441;SDS011;6285;48.804;9.220;2023-04-26T14:24:19;20.23;;;5.10;;
12441;SDS011;6285;48.804;9.220;2023-04-26T14:26:48;10.50;;;4.20;;
12441;SDS011;6285;48.804;9.220;2023-04-26T14:29:15;9.27;;;4.05;;
12441;SDS011;6285;48.804;9.220;2023-04-26T14:31:42;6.68;;;3.50;;
12441;SDS011;6285;48.804;9.220;2023-04-26T14:34:09;9.10;;;3.80;;
12441;SDS011;6285;48.804;9.220;2023-04-26T14:36:37;8.77;;;3.92;;
12441;SDS011;6285;48.804;9.220;2023-04-26T14:39:04;8.98;;;4.32;;
12441;SDS011;6285;48.804;9.220;2023-04-26T14:41:31;9.38;;;3.75;;
12441;SDS011;6285;48.804;9.220;2023-04-26T14:43:59;8.10;;;3.83;;
12441;SDS011;6285;48.804;9.220;2023-04-26T14:46:26;10.75;;;4.13;;
12441;SDS011;6285;48.804;9.220;2023-04-26T14:48:52;7.25;;;3.53;;
12441;SDS011;6285;48.804;9.220;2023-04-26T14:51:20;7.78;;;3.97;;
12441;SDS011;6285;48.804;9.220;2023-04-26T14:53:46;6.93;;;3.80;;
12441;SDS011;6285;48.804;9.220;2023-04-26T14:56:13;6.93;;;4.13;;
12441;SDS011;6285;48.804;9.220;2023-04-26T14:58:41;5.50;;;3.97;;
12441;SDS011;6285;48.804;9.220;2023-04-26T15:01:09;6.70;;;3.78;;
12441;SDS011;6285;48.804;9.220;2023-04-26T15:03:36;7.18;;;3.72;;
12441;SDS011;6285;48.804;9.220;2023-04-26T15:06:03;4.00;;;3.20;;
12441;SDS011;6285;48.804;9.220;2023-04-26T15:08:30;7.22;;;3.95;;
12441;SDS011;6285;48.804;9.220;2023-04-26T15:10:58;6.05;;;3.88;;
12441;SDS011;6285;48.804;9.220;2023-04-26T15:13:25;6.57;;;3.42;;
12441;SDS011;6285;48.804;9.220;2023-04-26T15:15:52;6.90;;;3.70;;
12441;SDS011;6285;48.804;9.220;2023-04-26T15:18:20;5.35;;;3.83;;
12441;SDS011;6285;48.804;9.220;2023-04-26T15:20:47;6.72;;;3.30;;
12441;SDS011;6285;48.804;9.220;2023-04-26T15:23:14;8.05;;;3.83;;
12441;SDS011;6285;48.804;9.220;2023-04-26T15:25:41;10.70;;;6.00;;
12441;SDS011;6285;48.804;9.220;2023-04-26T15:28:08;8.55;;;3.75;;
12441;SDS011;6285;48.804;9.220;2023-04-26T15:30:35;5.45;;;3.50;;
12441;SDS011;6285;48.804;9.220;2023-04-26T15:33:02;9.18;;;5.72;;
12441;SDS011;6285;48.804;9.220;2023-04-26T15:35:31;7.15;;;3.67;;
12441;SDS011;6285;48.804;9.220;2023-04-26T15:37:59;7.60;;;3.70;;
12441;SDS011;6285;48.804;9.220;2023-04-26T15:40:26;7.28;;;3.33;;
12441;SDS011;6285;48.804;9.220;2023-04-26T15:42:53;7.28;;;3.55;;
12441;SDS011;6285;48.804;9.220;2023-04-26T15:45:20;3.33;;;2.80;;
12441;SDS011;6285;48.804;9.220;2023-04-26T15:47:47;7.60;;;3.47;;
12441;SDS011;6285;48.804;9.220;2023-04-26T15:50:14;6.03;;;3.45;;
12441;SDS011;6285;48.804;9.220;2023-04-26T15:52:42;6.28;;;3.90;;
12441;SDS011;6285;48.804;9.220;2023-04-26T15:55:10;6.95;;;3.33;;
12441;SDS011;6285;48.804;9.220;2023-04-26T15:57:38;7.43;;;3.05;;
12441;SDS011;6285;48.804;9.220;2023-04-26T16:00:07;4.80;;;3.20;;
12441;SDS011;6285;48.804;9.220;2023-04-26T16:02:36;6.65;;;3.35;;
12441;SDS011;6285;48.804;9.220;2023-04-26T16:05:03;4.72;;;3.08;;
12441;SDS011;6285;48.804;9.220;2023-04-26T16:07:31;7.15;;;3.42;;
12441;SDS011;6285;48.804;9.220;2023-04-26T16:09:59;5.85;;;3.03;;
12441;SDS011;6285;48.804;9.220;2023-04-26T16:12:26;6.93;;;3.80;;
12441;SDS011;6285;48.804;9.220;2023-04-26T16:14:53;8.25;;;3.67;;
12441;SDS011;6285;48.804;9.220;2023-04-26T16:17:20;4.18;;;3.03;;
12441;SDS011;6285;48.804;9.220;2023-04-26T16:19:47;6.28;;;3.58;;
12441;SDS011;6285;48.804;9.220;2023-04-26T16:22:14;7.55;;;3.28;;
12441;SDS011;6285;48.804;9.220;2023-04-26T16:24:41;7.40;;;3.05;;
12441;SDS011;6285;48.804;9.220;2023-04-26T16:27:09;6.13;;;2.63;;
12441;SDS011;6285;48.804;9.220;2023-04-26T16:29:36;6.78;;;3.13;;
12441;SDS011;6285;48.804;9.220;2023-04-26T16:32:04;7.53;;;3.33;;
12441;SDS011;6285;48.804;9.220;2023-04-26T16:34:31;7.93;;;3.42;;
12441;SDS011;6285;48.804;9.220;2023-04-26T16:36:58;6.22;;;2.85;;
12441;SDS011;6285;48.804;9.220;2023-04-26T16:39:25;6.75;;;3.25;;
12441;SDS011;6285;48.804;9.220;2023-04-26T16:41:52;6.97;;;3.00;;
12441;SDS011;6285;48.804;9.220;2023-04-26T16:44:21;5.75;;;2.92;;